createdAt,value
2018-03-30T04:00:40.339Z,91.52
2018-03-30T04:01:05.788Z,91.43
2018-03-30T04:01:31.272Z,91.62
2018-03-30T04:01:56.736Z,91.71
2018-03-30T04:02:22.224Z,91.71
2018-03-30T04:02:47.641Z,91.62
2018-03-30T04:03:13.094Z,91.9
2018-03-30T04:03:38.539Z,91.62
2018-03-30T04:04:04.025Z,91.43
2018-03-30T04:04:29.466Z,91.71
2018-03-30T04:04:54.943Z,91.81
2018-03-30T04:05:20.405Z,91.52
2018-03-30T04:05:45.931Z,91.9
2018-03-30T04:06:11.410Z,91.71
2018-03-30T04:06:36.909Z,91.81
2018-03-30T04:07:02.389Z,91.71
2018-03-30T04:07:27.886Z,91.43
2018-03-30T04:07:53.311Z,91.52
2018-03-30T04:08:18.780Z,91.71
2018-03-30T04:08:44.239Z,91.71
2018-03-30T04:09:09.708Z,91.9
2018-03-30T04:09:35.180Z,91.52
2018-03-30T04:10:00.660Z,91.52
2018-03-30T04:10:26.140Z,91.43
2018-03-30T04:10:51.610Z,91.81
2018-03-30T04:11:17.071Z,91.43
2018-03-30T04:11:42.525Z,91.62
2018-03-30T04:12:08.023Z,91.71
2018-03-30T04:12:33.498Z,91.62
2018-03-30T04:12:58.940Z,91.81
2018-03-30T04:13:24.416Z,91.81
2018-03-30T04:13:49.890Z,91.62
2018-03-30T04:14:15.385Z,91.52
2018-03-30T04:14:40.886Z,91.14
2018-03-30T04:15:06.362Z,91.62
2018-03-30T04:15:31.886Z,91.52
2018-03-30T04:15:57.361Z,91.52
2018-03-30T04:16:22.822Z,91.33
2018-03-30T04:16:48.229Z,91.71
2018-03-30T04:17:13.774Z,91.52
2018-03-30T04:17:39.235Z,91.52
2018-03-30T04:18:04.680Z,91.33
2018-03-30T04:18:30.163Z,91.43
2018-03-30T04:18:55.615Z,91.81
2018-03-30T04:19:21.120Z,91.81
2018-03-30T04:19:46.597Z,92.19
2018-03-30T04:20:12.013Z,91.62
2018-03-30T04:20:37.496Z,91.9
2018-03-30T04:21:02.974Z,91.71
2018-03-30T04:21:28.441Z,92.28
2018-03-30T04:21:53.972Z,91.71
2018-03-30T04:22:19.428Z,91.81
2018-03-30T04:22:44.932Z,91.71
2018-03-30T04:23:10.375Z,91.71
2018-03-30T04:23:35.854Z,91.62
2018-03-30T04:24:01.306Z,92
2018-03-30T04:24:26.796Z,91.24
2018-03-30T04:24:52.223Z,91.9
2018-03-30T04:25:17.687Z,92.09
2018-03-30T04:25:43.139Z,91.9
2018-03-30T04:26:08.638Z,91.9
2018-03-30T04:26:34.135Z,91.71
2018-03-30T04:26:59.585Z,91.52
2018-03-30T04:27:25.064Z,91.81
2018-03-30T04:27:50.504Z,91.9
2018-03-30T04:28:15.969Z,92.09
2018-03-30T04:28:41.416Z,91.9
2018-03-30T04:29:06.852Z,91.9
2018-03-30T04:29:32.312Z,92
2018-03-30T04:29:57.762Z,91.81
2018-03-30T04:30:23.241Z,91.9
2018-03-30T04:30:48.678Z,91.24
2018-03-30T04:31:14.188Z,91.52
2018-03-30T04:31:39.596Z,91.62
2018-03-30T04:32:05.084Z,91.52
2018-03-30T04:32:30.561Z,91.43
2018-03-30T04:32:56.019Z,92
2018-03-30T04:33:21.497Z,92
2018-03-30T04:33:47.006Z,91.62
2018-03-30T04:34:12.558Z,91.62
2018-03-30T04:34:38.003Z,91.81
2018-03-30T04:35:03.524Z,91.81
2018-03-30T04:35:29.023Z,91.71
2018-03-30T04:35:54.476Z,92.09
2018-03-30T04:36:20.016Z,91.71
2018-03-30T04:36:45.497Z,92
2018-03-30T04:37:10.967Z,91.71
2018-03-30T04:37:36.428Z,91.71
2018-03-30T04:38:01.967Z,91.62
2018-03-30T04:38:27.492Z,91.9
2018-03-30T04:38:52.962Z,92
2018-03-30T04:39:18.438Z,92.19
2018-03-30T04:39:43.965Z,91.9
2018-03-30T04:40:09.415Z,91.71
2018-03-30T04:40:34.923Z,91.62
2018-03-30T04:41:00.410Z,91.81
2018-03-30T04:41:25.890Z,91.43
2018-03-30T04:41:51.432Z,91.43
2018-03-30T04:42:16.944Z,92
2018-03-30T04:42:42.389Z,91.24
2018-03-30T04:43:07.870Z,91.62
2018-03-30T04:43:33.382Z,91.71
2018-03-30T04:43:58.858Z,91.62
2018-03-30T04:44:24.345Z,91.71
2018-03-30T04:44:49.824Z,91.33
2018-03-30T04:45:15.295Z,91.52
2018-03-30T04:45:40.763Z,91.62
2018-03-30T04:46:06.223Z,91.62
2018-03-30T04:46:31.746Z,91.52
2018-03-30T04:46:57.188Z,91.62
2018-03-30T04:47:22.681Z,91.81
2018-03-30T04:47:48.131Z,92
2018-03-30T04:48:13.629Z,91.52
2018-03-30T04:48:39.098Z,91.81
2018-03-30T04:49:04.615Z,91.81
2018-03-30T04:49:30.082Z,91.71
2018-03-30T04:50:43.827Z,92.09
2018-03-30T04:51:09.354Z,91.81
2018-03-30T04:51:34.761Z,92.09
2018-03-30T04:52:00.218Z,91.9
2018-03-30T04:52:25.734Z,92.28
2018-03-30T04:52:51.148Z,92.28
2018-03-30T04:53:16.644Z,92.09
2018-03-30T04:53:42.077Z,92.19
2018-03-30T04:54:07.631Z,92.28
2018-03-30T04:54:33.095Z,92.28
2018-03-30T04:54:58.535Z,92.38
2018-03-30T04:55:24.005Z,92.57
2018-03-30T04:55:49.524Z,92.94
2018-03-30T04:56:14.965Z,93.04
2018-03-30T04:56:40.432Z,92.85
2018-03-30T04:57:05.917Z,92.38
2018-03-30T04:57:31.396Z,92.66
2018-03-30T04:57:56.952Z,92.19
2018-03-30T04:58:22.483Z,91.52
2018-03-30T04:58:47.967Z,92.09
2018-03-30T04:59:13.439Z,91.81
2018-03-30T04:59:38.901Z,92
2018-03-30T05:00:04.357Z,91.9
2018-03-30T05:00:29.884Z,91.9
2018-03-30T05:00:55.348Z,91.9
2018-03-30T05:01:20.797Z,91.81
2018-03-30T05:01:46.297Z,92.38
2018-03-30T05:02:11.845Z,92.38
2018-03-30T05:02:37.395Z,92.38
2018-03-30T05:03:02.882Z,92.38
2018-03-30T05:03:28.378Z,92.38
2018-03-30T05:03:53.857Z,92.38
2018-03-30T05:04:19.381Z,92.28
2018-03-30T05:04:44.857Z,91.71
2018-03-30T05:05:10.353Z,92.09
2018-03-30T05:05:35.834Z,92
2018-03-30T05:06:01.271Z,92
2018-03-30T05:06:26.799Z,92.47
2018-03-30T05:06:52.252Z,92.66
2018-03-30T05:07:17.719Z,92.57
2018-03-30T05:07:43.209Z,92.09
2018-03-30T05:08:08.659Z,92.57
2018-03-30T05:08:34.143Z,92.47
2018-03-30T05:08:59.608Z,92.38
2018-03-30T05:09:25.098Z,92.38
2018-03-30T05:09:50.591Z,92.09
2018-03-30T05:10:16.048Z,92.28
2018-03-30T05:10:41.570Z,91.81
2018-03-30T05:11:07.047Z,92.09
2018-03-30T05:11:32.566Z,91.71
2018-03-30T05:11:58.058Z,92.09
2018-03-30T05:12:23.537Z,91.62
2018-03-30T05:12:49.000Z,91.71
2018-03-30T05:13:14.497Z,91.71
2018-03-30T05:13:39.985Z,91.81
2018-03-30T05:14:05.495Z,92.19
2018-03-30T05:14:30.947Z,92.19
2018-03-30T05:14:56.459Z,92
2018-03-30T05:15:21.933Z,92.19
2018-03-30T05:15:47.415Z,92.19
2018-03-30T05:16:12.936Z,91.71
2018-03-30T05:16:38.397Z,91.62
2018-03-30T05:17:03.887Z,92.28
2018-03-30T05:17:29.351Z,92.38
2018-03-30T05:17:54.871Z,92.38
2018-03-30T05:18:20.331Z,92.57
2018-03-30T05:18:45.776Z,92.66
2018-03-30T05:19:11.236Z,92.47
2018-03-30T05:19:36.679Z,92.57
2018-03-30T05:20:02.123Z,92.38
2018-03-30T05:20:27.619Z,92.28
2018-03-30T05:21:36.314Z,91.9
2018-03-30T05:22:01.832Z,91.9
2018-03-30T05:22:27.278Z,91.9
2018-03-30T05:22:52.734Z,92.28
2018-03-30T05:23:18.241Z,92.66
2018-03-30T05:23:43.743Z,92.47
2018-03-30T05:24:09.176Z,92.47
2018-03-30T05:24:34.714Z,92.38
2018-03-30T05:25:00.134Z,92.57
2018-03-30T05:25:25.596Z,92.28
2018-03-30T05:25:51.068Z,92.09
2018-03-30T05:26:16.550Z,92.19
2018-03-30T05:26:42.031Z,92.28
2018-03-30T05:27:07.540Z,92.38
2018-03-30T05:27:33.012Z,92.38
2018-03-30T05:27:58.479Z,92.38
2018-03-30T05:28:23.939Z,92.47
2018-03-30T05:28:49.408Z,92.38
2018-03-30T05:29:14.871Z,92.38
2018-03-30T05:29:40.329Z,92.09
2018-03-30T05:30:05.798Z,92.19
2018-03-30T05:30:31.275Z,92.09
2018-03-30T05:30:56.700Z,92.28
2018-03-30T05:31:22.171Z,92.19
2018-03-30T05:31:47.634Z,92.28
2018-03-30T05:32:13.077Z,91.9
2018-03-30T05:32:38.562Z,91.81
2018-03-30T05:33:04.004Z,92.09
2018-03-30T05:33:29.462Z,92.09
2018-03-30T05:33:54.966Z,91.9
2018-03-30T05:34:20.413Z,91.71
2018-03-30T05:34:45.882Z,91.71
2018-03-30T05:35:11.352Z,91.81
2018-03-30T05:35:36.857Z,91.9
2018-03-30T05:36:02.332Z,91.9
2018-03-30T05:36:27.760Z,92.09
2018-03-30T05:36:53.208Z,92.38
2018-03-30T05:37:18.673Z,92.28
2018-03-30T05:37:44.128Z,92.28
2018-03-30T05:38:09.631Z,92.47
2018-03-30T05:39:23.414Z,92.76
2018-03-30T05:39:48.908Z,92.19
2018-03-30T05:40:14.393Z,92.28
2018-03-30T05:40:39.831Z,92
2018-03-30T05:41:05.297Z,92.28
2018-03-30T05:41:30.751Z,92.19
2018-03-30T05:41:56.208Z,92.09
2018-03-30T05:42:21.642Z,92.19
2018-03-30T05:42:47.081Z,92.38
2018-03-30T05:43:12.543Z,91.71
2018-03-30T05:43:38.015Z,91.81
2018-03-30T05:44:03.538Z,91.81
2018-03-30T05:44:28.934Z,92.09
2018-03-30T05:44:54.421Z,91.24
2018-03-30T05:45:19.851Z,92
2018-03-30T05:45:45.293Z,91.81
2018-03-30T05:46:10.745Z,91.81
2018-03-30T05:46:36.222Z,91.9
2018-03-30T05:47:01.682Z,91.81
2018-03-30T05:47:27.157Z,91.43
2018-03-30T05:47:52.630Z,92.09
2018-03-30T05:48:18.093Z,91.33
2018-03-30T05:48:43.608Z,91.95
2018-03-30T05:49:09.039Z,91.52
2018-03-30T05:49:34.504Z,91.43
2018-03-30T05:50:00.046Z,91.43
2018-03-30T05:50:25.420Z,92
2018-03-30T05:50:50.890Z,92
2018-03-30T05:51:16.408Z,91.95
2018-03-30T05:51:41.878Z,91.52
2018-03-30T05:52:07.349Z,91.95
2018-03-30T05:52:32.829Z,91.95
2018-03-30T05:52:58.308Z,91.19
2018-03-30T05:53:23.773Z,91.81
2018-03-30T05:53:49.246Z,91.76
2018-03-30T05:54:14.737Z,91.38
2018-03-30T05:54:40.185Z,91.09
2018-03-30T05:55:05.648Z,91
2018-03-30T05:55:31.118Z,91
2018-03-30T05:55:56.590Z,90.91
2018-03-30T05:56:22.057Z,91
2018-03-30T05:56:47.507Z,91
2018-03-30T05:57:12.939Z,91.09
2018-03-30T05:57:38.371Z,91
2018-03-30T05:58:03.813Z,90.81
2018-03-30T05:58:29.287Z,90.62
2018-03-30T05:58:54.788Z,90.81
2018-03-30T05:59:20.223Z,91
2018-03-30T05:59:45.648Z,90.91
2018-03-30T06:00:11.113Z,90.91
2018-03-30T06:00:36.536Z,91.09
2018-03-30T06:01:01.999Z,90.91
2018-03-30T06:01:27.533Z,90.81
2018-03-30T06:01:52.989Z,91.19
2018-03-30T06:02:18.462Z,91.19
2018-03-30T06:02:43.884Z,90.91
2018-03-30T06:03:09.392Z,91
2018-03-30T06:03:34.845Z,91.38
2018-03-30T06:04:00.348Z,91.19
2018-03-30T06:04:25.847Z,91.19
2018-03-30T06:04:51.295Z,91.19
2018-03-30T06:05:16.784Z,91.28
2018-03-30T06:05:42.218Z,90.72
2018-03-30T06:06:07.673Z,90.72
2018-03-30T06:06:33.136Z,90.91
2018-03-30T06:06:58.594Z,91.09
2018-03-30T06:07:24.071Z,90.72
2018-03-30T06:07:49.573Z,90.72
2018-03-30T06:08:15.058Z,91.09
2018-03-30T06:08:40.548Z,91.19
2018-03-30T06:09:05.992Z,91
2018-03-30T06:09:31.467Z,90.62
2018-03-30T06:09:56.937Z,90.62
2018-03-30T06:10:22.389Z,90.62
2018-03-30T06:10:47.870Z,90.53
2018-03-30T06:11:13.383Z,90.81
2018-03-30T06:11:38.861Z,90.91
2018-03-30T06:12:04.330Z,91.19
2018-03-30T06:12:29.830Z,91
2018-03-30T06:12:55.255Z,91.19
2018-03-30T06:13:20.766Z,91
2018-03-30T06:13:46.217Z,90.91
2018-03-30T06:14:11.740Z,91
2018-03-30T06:14:37.216Z,90.72
2018-03-30T06:15:50.986Z,90.53
2018-03-30T06:16:16.470Z,90.53
2018-03-30T06:16:41.929Z,90.81
2018-03-30T06:17:07.424Z,91.19
2018-03-30T06:17:32.887Z,91
2018-03-30T06:17:58.332Z,91.09
2018-03-30T06:18:23.816Z,90.81
2018-03-30T06:18:49.271Z,91
2018-03-30T06:19:14.826Z,91
2018-03-30T06:19:40.287Z,90.91
2018-03-30T06:20:05.725Z,90.72
2018-03-30T06:20:31.198Z,90.53
2018-03-30T06:20:56.647Z,90.43
2018-03-30T06:21:22.114Z,90.62
2018-03-30T06:21:47.589Z,90.62
2018-03-30T06:22:13.089Z,90.53
2018-03-30T06:22:38.505Z,90.53
2018-03-30T06:23:03.950Z,90.53
2018-03-30T06:23:29.412Z,90.24
2018-03-30T06:23:54.897Z,90.53
2018-03-30T06:24:20.388Z,90.62
2018-03-30T06:24:45.872Z,90.34
2018-03-30T06:25:11.352Z,90.62
2018-03-30T06:25:36.798Z,90.53
2018-03-30T06:26:02.313Z,90.24
2018-03-30T06:26:27.775Z,90.43
2018-03-30T06:26:53.285Z,90.43
2018-03-30T06:27:18.722Z,90.62
2018-03-30T06:27:44.219Z,90.62
2018-03-30T06:28:09.679Z,90.62
2018-03-30T06:28:35.157Z,90.62
2018-03-30T06:29:00.610Z,90.43
2018-03-30T06:29:26.069Z,90.81
2018-03-30T06:29:51.560Z,91.09
2018-03-30T06:30:17.036Z,91
2018-03-30T06:30:42.560Z,91
2018-03-30T06:31:51.242Z,90.43
2018-03-30T06:32:16.739Z,90.53
2018-03-30T06:32:42.162Z,90.72
2018-03-30T06:33:07.649Z,90.72
2018-03-30T06:33:33.112Z,90.72
2018-03-30T06:33:58.591Z,90.62
2018-03-30T06:34:24.046Z,90.62
2018-03-30T06:34:49.594Z,90.72
2018-03-30T06:35:15.114Z,90.62
2018-03-30T06:35:40.580Z,90.43
2018-03-30T06:36:06.058Z,90.62
2018-03-30T06:36:31.560Z,90.43
2018-03-30T06:36:57.082Z,90.15
2018-03-30T06:37:22.530Z,89.96
2018-03-30T06:37:48.018Z,90.05
2018-03-30T06:38:13.487Z,89.96
2018-03-30T06:38:39.038Z,89.96
2018-03-30T06:39:04.502Z,89.86
2018-03-30T06:39:30.007Z,89.96
2018-03-30T06:39:55.491Z,89.77
2018-03-30T06:40:20.985Z,89.67
2018-03-30T06:40:46.471Z,89.48
2018-03-30T06:41:11.937Z,89.29
2018-03-30T06:41:37.433Z,89.58
2018-03-30T06:42:02.901Z,89.48
2018-03-30T06:42:28.409Z,89.48
2018-03-30T06:42:53.919Z,89.39
2018-03-30T06:43:19.471Z,89.48
2018-03-30T06:43:44.971Z,89.48
2018-03-30T06:44:43.477Z,89.29
2018-03-30T06:45:08.998Z,89.48
2018-03-30T06:45:34.495Z,89.29
2018-03-30T06:45:59.986Z,89.11
2018-03-30T06:46:25.455Z,89.77
2018-03-30T06:46:50.940Z,88.73
2018-03-30T06:47:16.417Z,88.82
2018-03-30T06:48:09.838Z,89.01
2018-03-30T06:48:35.318Z,88.92
2018-03-30T06:49:00.807Z,88.82
2018-03-30T06:49:26.278Z,89.29
2018-03-30T06:49:51.824Z,89.11
2018-03-30T06:50:17.269Z,88.73
2018-03-30T06:50:42.706Z,89.01
2018-03-30T06:51:08.189Z,88.92
2018-03-30T06:51:33.683Z,88.54
2018-03-30T06:51:59.159Z,88.63
2018-03-30T06:52:24.663Z,88.73
2018-03-30T06:52:50.143Z,88.44
2018-03-30T06:53:15.628Z,89.01
2018-03-30T06:53:41.113Z,89.58
2018-03-30T06:54:06.597Z,88.25
2018-03-30T06:54:32.070Z,88.82
2018-03-30T06:54:57.563Z,88.63
2018-03-30T06:55:23.059Z,88.92
2018-03-30T06:55:48.511Z,89.11
2018-03-30T06:56:13.958Z,88.92
2018-03-30T06:56:39.433Z,89.11
2018-03-30T06:57:04.952Z,89.01
2018-03-30T06:57:30.453Z,88.73
2018-03-30T06:57:55.962Z,88.82
2018-03-30T06:58:21.421Z,89.11
2018-03-30T06:58:46.923Z,89.01
2018-03-30T06:59:12.409Z,88.82
2018-03-30T06:59:37.873Z,88.73
2018-03-30T07:00:03.413Z,89.01
2018-03-30T07:00:28.898Z,89.01
2018-03-30T07:00:54.334Z,88.73
2018-03-30T07:01:19.806Z,89.2
2018-03-30T07:01:45.315Z,89.2
2018-03-30T07:02:10.799Z,89.11
2018-03-30T07:02:36.298Z,89.01
2018-03-30T07:03:01.761Z,88.73
2018-03-30T07:03:27.250Z,88.82
2018-03-30T07:03:52.738Z,89.11
2018-03-30T07:04:18.198Z,89.01
2018-03-30T07:04:43.761Z,88.82
2018-03-30T07:05:09.212Z,88.92
2018-03-30T07:05:34.703Z,89.11
2018-03-30T07:06:00.230Z,88.82
2018-03-30T07:06:25.725Z,89.01
2018-03-30T07:06:51.220Z,89.01
2018-03-30T07:07:16.695Z,89.48
2018-03-30T07:07:42.176Z,89.11
2018-03-30T07:08:07.648Z,89.29
2018-03-30T07:08:33.130Z,88.82
2018-03-30T07:08:58.583Z,88.63
2018-03-30T07:09:24.077Z,88.73
2018-03-30T07:09:49.543Z,89.2
2018-03-30T07:10:15.014Z,89.58
2018-03-30T07:10:40.520Z,88.92
2018-03-30T07:11:05.976Z,89.2
2018-03-30T07:11:31.482Z,89.11
2018-03-30T07:11:56.967Z,89.48
2018-03-30T07:12:22.442Z,89.11
2018-03-30T07:12:47.932Z,89.48
2018-03-30T07:13:13.372Z,89.11
2018-03-30T07:13:38.826Z,89.11
2018-03-30T07:14:04.405Z,88.73
2018-03-30T07:14:29.881Z,89.01
2018-03-30T07:14:55.366Z,88.73
2018-03-30T07:15:20.820Z,88.82
2018-03-30T07:15:46.272Z,89.01
2018-03-30T07:16:11.792Z,88.63
2018-03-30T07:16:37.208Z,89.01
2018-03-30T07:17:02.722Z,89.34
2018-03-30T07:17:28.209Z,89.11
2018-03-30T07:17:53.716Z,88.96
2018-03-30T07:18:19.205Z,89.39
2018-03-30T07:18:44.693Z,89.43
2018-03-30T07:19:10.210Z,89.39
2018-03-30T07:19:35.649Z,89.25
2018-03-30T07:20:01.120Z,89.25
2018-03-30T07:20:26.611Z,89.53
2018-03-30T07:20:52.091Z,88.87
2018-03-30T07:21:17.573Z,89.53
2018-03-30T07:21:43.082Z,89.53
2018-03-30T07:22:08.526Z,89.25
2018-03-30T07:22:34.246Z,89.43
2018-03-30T07:22:59.795Z,89.06
2018-03-30T07:23:25.190Z,89.62
2018-03-30T07:23:50.679Z,88.58
2018-03-30T07:24:16.181Z,89.06
2018-03-30T07:24:41.650Z,89.25
2018-03-30T07:25:07.166Z,89.34
2018-03-30T07:25:33.006Z,89.15
2018-03-30T07:25:58.785Z,89.25
2018-03-30T07:26:24.193Z,89.15
2018-03-30T07:26:49.761Z,88.87
2018-03-30T07:27:15.132Z,89.25
2018-03-30T07:27:40.620Z,88.48
2018-03-30T07:28:06.135Z,88.58
2018-03-30T07:28:31.611Z,88.77
2018-03-30T07:28:57.091Z,88.68
2018-03-30T07:29:22.549Z,87.92
2018-03-30T07:30:37.182Z,87.54
2018-03-30T07:31:02.670Z,87.73
2018-03-30T07:31:28.172Z,87.82
2018-03-30T07:31:53.644Z,87.73
2018-03-30T07:32:19.131Z,87.73
2018-03-30T07:32:44.664Z,87.82
2018-03-30T07:33:10.253Z,87.45
2018-03-30T07:33:35.940Z,87.35
2018-03-30T07:34:01.460Z,87.63
2018-03-30T07:34:27.024Z,87.73
2018-03-30T07:34:52.497Z,87.54
2018-03-30T07:35:18.008Z,87.63
2018-03-30T07:35:43.559Z,87.82
2018-03-30T07:36:08.994Z,87.92
2018-03-30T07:36:34.540Z,87.63
2018-03-30T07:37:00.265Z,86.97
2018-03-30T07:37:25.760Z,87.06
2018-03-30T07:37:51.131Z,86.97
2018-03-30T07:38:16.766Z,87.45
2018-03-30T07:38:42.220Z,86.97
2018-03-30T07:39:07.769Z,87.16
2018-03-30T07:39:33.279Z,87.35
2018-03-30T07:39:58.806Z,86.87
2018-03-30T07:40:24.275Z,87.49
2018-03-30T07:40:49.756Z,87.11
2018-03-30T07:41:15.259Z,86.91
2018-03-30T07:41:40.807Z,86.63
2018-03-30T07:42:06.276Z,86.91
2018-03-30T07:42:31.758Z,86.44
2018-03-30T07:42:57.269Z,86.72
2018-03-30T07:43:22.759Z,86.25
2018-03-30T07:43:48.239Z,86.07
2018-03-30T07:44:13.733Z,85.68
2018-03-30T07:44:39.215Z,85.59
2018-03-30T07:45:04.727Z,85.11
2018-03-30T07:45:30.272Z,84.83
2018-03-30T07:45:55.755Z,85.21
2018-03-30T07:46:21.181Z,84.26
2018-03-30T07:46:46.709Z,84.55
2018-03-30T07:47:12.118Z,84.64
2018-03-30T07:47:37.656Z,84.3
2018-03-30T07:48:03.071Z,84.49
2018-03-30T07:48:28.632Z,84.68
2018-03-30T07:48:54.150Z,84.68
2018-03-30T07:49:19.595Z,84.87
2018-03-30T07:49:45.098Z,84.3
2018-03-30T07:50:10.534Z,84.11
2018-03-30T07:50:36.013Z,83.92
2018-03-30T07:51:01.542Z,83.45
2018-03-30T07:51:26.963Z,83.64
2018-03-30T07:51:52.376Z,84.01
2018-03-30T07:52:17.906Z,82.78
2018-03-30T07:52:43.429Z,83.36
2018-03-30T07:53:08.899Z,82.59
2018-03-30T07:53:34.505Z,82.21
2018-03-30T07:53:59.918Z,82.4
2018-03-30T07:54:25.434Z,82.59
2018-03-30T07:54:50.934Z,82.21
2018-03-30T07:55:16.589Z,82.5
2018-03-30T07:55:42.028Z,82.69
2018-03-30T07:56:07.596Z,83.07
2018-03-30T07:56:33.046Z,83.36
2018-03-30T07:56:58.583Z,83.16
2018-03-30T07:57:24.032Z,83.45
2018-03-30T07:57:49.518Z,82.88
2018-03-30T07:58:14.912Z,82.92
2018-03-30T07:58:40.442Z,83.3
2018-03-30T07:59:05.929Z,83.3
2018-03-30T07:59:31.493Z,83.11
2018-03-30T07:59:57.017Z,82.92
2018-03-30T08:00:22.464Z,82.64
2018-03-30T08:00:47.984Z,82.82
2018-03-30T08:01:13.378Z,82.92
2018-03-30T08:01:39.119Z,82.82
2018-03-30T08:02:04.548Z,82.54
2018-03-30T08:02:30.071Z,82.35
2018-03-30T08:02:55.585Z,82.26
2018-03-30T08:03:21.131Z,82.35
2018-03-30T08:03:46.578Z,82.16
2018-03-30T08:04:12.050Z,82.07
2018-03-30T08:04:37.789Z,82.16
2018-03-30T08:05:03.271Z,82.35
2018-03-30T08:05:28.759Z,82.54
2018-03-30T08:05:54.263Z,81.78
2018-03-30T08:06:19.790Z,81.78
2018-03-30T08:06:45.304Z,81.68
2018-03-30T08:07:10.820Z,81.02
2018-03-30T08:07:36.245Z,80.45
2018-03-30T08:08:01.806Z,80.26
2018-03-30T08:08:27.243Z,80.55
2018-03-30T08:08:52.670Z,80.74
2018-03-30T08:09:18.185Z,81.3
2018-03-30T08:09:43.687Z,81.87
2018-03-30T08:10:09.229Z,81.78
2018-03-30T08:10:34.699Z,82.07
2018-03-30T08:11:00.226Z,81.68
2018-03-30T08:11:25.683Z,82.07
2018-03-30T08:11:51.201Z,82.16
2018-03-30T08:12:16.630Z,82.45
2018-03-30T08:12:42.187Z,82.35
2018-03-30T08:13:07.640Z,82.2
2018-03-30T08:13:33.217Z,82.2
2018-03-30T08:13:58.785Z,82.87
2018-03-30T08:14:24.228Z,82.2
2018-03-30T08:14:49.775Z,81.82
2018-03-30T08:15:15.258Z,80.77
2018-03-30T08:15:40.777Z,80.77
2018-03-30T08:16:06.430Z,80.58
2018-03-30T08:16:31.923Z,81.16
2018-03-30T08:16:57.412Z,80.49
2018-03-30T08:17:22.877Z,80.4
2018-03-30T08:17:48.334Z,80.49
2018-03-30T08:18:13.838Z,80.45
2018-03-30T08:18:39.295Z,80.49
2018-03-30T08:19:04.769Z,81.54
2018-03-30T08:19:30.270Z,81.63
2018-03-30T08:19:55.762Z,82.35
2018-03-30T08:20:21.200Z,82.58
2018-03-30T08:20:46.811Z,82.68
2018-03-30T08:21:12.295Z,82.58
2018-03-30T08:21:37.894Z,82.2
2018-03-30T08:22:03.716Z,82.2
2018-03-30T08:22:29.259Z,82.1
2018-03-30T08:22:54.685Z,82.39
2018-03-30T08:23:20.124Z,82.54
2018-03-30T08:23:45.671Z,81.63
2018-03-30T08:24:11.178Z,81.02
2018-03-30T08:24:36.563Z,81.06
2018-03-30T08:25:02.102Z,80.58
2018-03-30T08:25:27.735Z,80.58
2018-03-30T08:25:53.178Z,80.58
2018-03-30T08:26:18.756Z,80.96
2018-03-30T08:26:44.213Z,80.96
2018-03-30T08:27:09.665Z,80.58
2018-03-30T08:27:35.120Z,80.58
2018-03-30T08:28:01.486Z,80.4
2018-03-30T08:28:26.163Z,80.58
2018-03-30T08:28:51.680Z,80.21
2018-03-30T08:29:17.280Z,80.49
2018-03-30T08:29:42.751Z,81.06
2018-03-30T08:30:08.240Z,80.77
2018-03-30T08:30:33.728Z,80.4
2018-03-30T08:30:59.510Z,80.49
2018-03-30T08:31:25.172Z,80.49
2018-03-30T08:31:50.651Z,81.06
2018-03-30T08:32:16.238Z,80.96
2018-03-30T08:32:41.855Z,80.93
2018-03-30T08:33:07.293Z,81.25
2018-03-30T08:33:33.018Z,82.16
2018-03-30T08:33:58.476Z,81.73
2018-03-30T08:34:24.049Z,81.73
2018-03-30T08:34:49.610Z,81.25
2018-03-30T08:35:15.253Z,80.49
2018-03-30T08:35:40.884Z,80.58
2018-03-30T08:36:06.445Z,80.58
2018-03-30T08:36:32.039Z,80.87
2018-03-30T08:36:57.453Z,81.63
2018-03-30T08:37:22.991Z,82.49
2018-03-30T08:37:48.490Z,82.1
2018-03-30T08:38:13.918Z,82.1
2018-03-30T08:38:39.449Z,81.73
2018-03-30T08:39:04.920Z,81.54
2018-03-30T08:39:30.462Z,81.54
2018-03-30T08:39:55.962Z,81.73
2018-03-30T08:40:21.473Z,81.92
2018-03-30T08:40:46.988Z,82.1
2018-03-30T08:41:12.497Z,82.29
2018-03-30T08:41:37.958Z,82.1
2018-03-30T08:42:03.555Z,82.39
2018-03-30T08:42:29.053Z,82.2
2018-03-30T08:42:54.460Z,82.2
2018-03-30T08:43:20.009Z,82.29
2018-03-30T08:43:45.421Z,81.73
2018-03-30T08:44:10.916Z,81.54
2018-03-30T08:44:36.435Z,81.73
2018-03-30T08:45:01.888Z,81.63
2018-03-30T08:45:27.390Z,81.54
2018-03-30T08:45:52.883Z,82.2
2018-03-30T08:46:18.369Z,81.82
2018-03-30T08:46:43.809Z,81.44
2018-03-30T08:47:09.417Z,81.25
2018-03-30T08:47:34.910Z,80.68
2018-03-30T08:48:00.385Z,81.06
2018-03-30T08:48:26.175Z,81.16
2018-03-30T08:48:51.560Z,80.96
2018-03-30T08:49:17.188Z,81.73
2018-03-30T08:49:42.581Z,82.68
2018-03-30T08:50:08.118Z,82.01
2018-03-30T08:50:33.586Z,82.58
2018-03-30T08:50:59.092Z,82.77
2018-03-30T08:51:24.602Z,82.77
2018-03-30T08:51:50.145Z,82.87
2018-03-30T08:52:15.566Z,82.77
2018-03-30T08:52:41.041Z,82.68
2018-03-30T08:53:06.535Z,82.49
2018-03-30T08:53:32.039Z,82.29
2018-03-30T08:53:57.552Z,81.92
2018-03-30T08:54:23.039Z,82.2
2018-03-30T08:54:48.549Z,82.1
2018-03-30T08:55:14.047Z,82.39
2018-03-30T08:55:39.542Z,81.63
2018-03-30T08:56:05.030Z,81.92
2018-03-30T08:56:30.568Z,82.2
2018-03-30T08:56:56.044Z,82.58
2018-03-30T08:57:21.730Z,82.96
2018-03-30T08:57:47.133Z,82.49
2018-03-30T08:58:12.608Z,82.2
2018-03-30T08:58:38.126Z,82.58
2018-03-30T08:59:03.630Z,82.24
2018-03-30T08:59:29.151Z,81.77
2018-03-30T08:59:54.611Z,81.2
2018-03-30T09:00:20.121Z,80.63
2018-03-30T09:00:45.631Z,80.4
2018-03-30T09:01:11.106Z,80.44
2018-03-30T09:01:36.555Z,80.63
2018-03-30T09:02:50.370Z,80.91
2018-03-30T09:03:15.877Z,80.4
2018-03-30T09:03:41.376Z,80.63
2018-03-30T09:04:06.854Z,80.44
2018-03-30T09:04:32.322Z,80.53
2018-03-30T09:04:57.827Z,80.82
2018-03-30T09:05:23.312Z,81.2
2018-03-30T09:05:48.873Z,81.77
2018-03-30T09:06:14.327Z,81.86
2018-03-30T09:06:39.839Z,82.05
2018-03-30T09:07:05.287Z,82.34
2018-03-30T09:07:30.749Z,81.2
2018-03-30T09:07:56.249Z,81.58
2018-03-30T09:08:21.771Z,81.77
2018-03-30T09:08:47.270Z,81.58
2018-03-30T09:09:12.760Z,81.77
2018-03-30T09:09:38.227Z,81.29
2018-03-30T09:10:03.726Z,81.48
2018-03-30T09:10:29.239Z,81.48
2018-03-30T09:10:54.694Z,81.29
2018-03-30T09:11:20.175Z,81.2
2018-03-30T09:11:45.689Z,81.67
2018-03-30T09:12:11.162Z,81.77
2018-03-30T09:12:36.659Z,81.38
2018-03-30T09:13:02.125Z,81.1
2018-03-30T09:13:27.609Z,80.53
2018-03-30T09:13:53.105Z,79.68
2018-03-30T09:14:18.570Z,80.05
2018-03-30T09:15:17.119Z,81.2
2018-03-30T09:15:42.626Z,81.2
2018-03-30T09:16:08.100Z,80.72
2018-03-30T09:16:33.591Z,80.63
2018-03-30T09:16:59.073Z,80.34
2018-03-30T09:17:24.549Z,80.05
2018-03-30T09:17:50.058Z,79.77
2018-03-30T09:18:15.529Z,79.68
2018-03-30T09:18:41.024Z,79.86
2018-03-30T09:19:06.509Z,79.77
2018-03-30T09:19:32.003Z,80.15
2018-03-30T09:19:57.570Z,80.15
2018-03-30T09:20:23.072Z,80.34
2018-03-30T09:21:31.795Z,79.86
2018-03-30T09:21:57.255Z,79.77
2018-03-30T09:22:22.746Z,80.24
2018-03-30T09:22:48.249Z,79.96
2018-03-30T09:23:13.768Z,80.05
2018-03-30T09:23:39.266Z,79.49
2018-03-30T09:24:04.791Z,79.01
2018-03-30T09:24:30.263Z,78.77
2018-03-30T09:24:55.721Z,79.68
2018-03-30T09:25:21.244Z,79.62
2018-03-30T09:25:46.710Z,79.33
2018-03-30T09:26:12.198Z,79.24
2018-03-30T09:26:37.739Z,79.72
2018-03-30T09:27:03.313Z,79.62
2018-03-30T09:27:28.736Z,79.14
2018-03-30T09:27:54.239Z,78.57
2018-03-30T09:28:19.702Z,78.57
2018-03-30T09:28:45.144Z,78.1
2018-03-30T09:29:10.658Z,78.57
2018-03-30T09:29:36.113Z,78.71
2018-03-30T09:30:01.594Z,78.9
2018-03-30T09:30:27.100Z,78.14
2018-03-30T09:30:52.577Z,77.66
2018-03-30T09:31:18.066Z,78.14
2018-03-30T09:31:43.525Z,77.47
2018-03-30T09:32:09.043Z,77
2018-03-30T09:32:34.543Z,77.09
2018-03-30T09:33:00.001Z,76.84
2018-03-30T09:33:25.684Z,76.42
2018-03-30T09:33:51.194Z,76.65
2018-03-30T09:34:16.674Z,76.08
2018-03-30T09:34:42.145Z,77.03
2018-03-30T09:35:07.630Z,76.84
2018-03-30T09:35:33.113Z,76.84
2018-03-30T09:35:58.632Z,77.13
2018-03-30T09:36:24.137Z,76.94
2018-03-30T09:36:49.658Z,77.7
2018-03-30T09:37:15.150Z,76.65
2018-03-30T09:37:40.632Z,76.18
2018-03-30T09:38:06.093Z,76.18
2018-03-30T09:38:31.609Z,75.32
2018-03-30T09:38:57.095Z,75.13